Weather at Tatoi Airport

Public forecast

Using degrees Celsius for public forecast. Weather courtesy of forecast.io.

Closest aviation weather report (METAR) to Tatoi Airport

Report is more than 6 hours old.

Closest report is Elefsis Airport, 11.1 nm (20.6 km) WSW.

2022/11/14 15:20 (retrieved 2 years ago)

LGEL 141520Z 33007KT 9999 FEW025 17/10 Q1022

Closest aviation forecast (TAF) to Tatoi Airport

Forecast is more than 12 hours old.

Closest forecast is Elefsis Airport, 11.1 nm (20.6 km) WSW.

2023/02/22 17:13 (retrieved 1 year ago)

TAF LFSX 221708Z 2217/2315 CNL TAF LGEL 221700Z 2218/2318 VRB05KT 9999 FEW025